createdAt,value
2018-12-18T00:00:19.763Z,24.90
2018-12-18T00:02:50.014Z,24.00
2018-12-18T00:05:24.050Z,22.67
2018-12-18T00:07:51.502Z,25.20
2018-12-18T00:10:18.722Z,25.50
2018-12-18T00:12:46.072Z,25.83
2018-12-18T00:15:13.281Z,25.90
2018-12-18T00:17:40.493Z,25.97
2018-12-18T00:20:07.944Z,24.77
2018-12-18T00:22:35.148Z,24.87
2018-12-18T00:25:02.497Z,25.03
2018-12-18T00:27:29.748Z,25.33
2018-12-18T00:29:57.016Z,25.47
2018-12-18T00:32:24.243Z,25.73
2018-12-18T00:34:51.516Z,27.67
2018-12-18T00:37:18.708Z,25.00
2018-12-18T00:39:46.020Z,26.30
2018-12-18T00:42:13.352Z,26.17
2018-12-18T00:44:40.662Z,24.20
2018-12-18T00:47:07.892Z,25.83
2018-12-18T00:49:35.111Z,24.23
2018-12-18T00:52:02.313Z,26.43
2018-12-18T00:54:29.487Z,26.50
2018-12-18T00:56:56.742Z,25.40
2018-12-18T00:59:23.941Z,25.77
2018-12-18T01:01:57.113Z,25.33
2018-12-18T01:04:24.321Z,25.27
2018-12-18T01:06:51.562Z,25.07
2018-12-18T01:09:18.916Z,26.33
2018-12-18T01:11:46.558Z,25.83
2018-12-18T01:14:13.796Z,25.20
2018-12-18T01:16:41.266Z,25.20
2018-12-18T01:19:08.514Z,26.40
2018-12-18T01:21:35.761Z,24.47
2018-12-18T01:24:03.121Z,25.13
2018-12-18T01:26:30.328Z,25.77
2018-12-18T01:28:57.531Z,24.53
2018-12-18T01:31:24.794Z,25.47
2018-12-18T01:33:52.026Z,25.33
2018-12-18T01:36:19.225Z,24.10
2018-12-18T01:38:46.464Z,24.73
2018-12-18T01:41:13.689Z,23.57
2018-12-18T01:43:40.892Z,24.70
2018-12-18T01:46:08.107Z,24.43
2018-12-18T01:48:35.331Z,24.80
2018-12-18T01:51:02.548Z,23.73
2018-12-18T01:53:29.801Z,23.97
2018-12-18T01:55:57.186Z,25.27
2018-12-18T01:58:24.492Z,25.17
2018-12-18T02:00:51.795Z,24.00
2018-12-18T02:03:18.997Z,23.43
2018-12-18T02:05:46.345Z,24.03
2018-12-18T02:08:13.568Z,25.13
2018-12-18T02:10:40.868Z,25.93
2018-12-18T02:13:08.242Z,25.80
2018-12-18T02:15:35.493Z,26.87
2018-12-18T02:18:02.689Z,26.63
2018-12-18T02:20:29.911Z,27.60
2018-12-18T02:22:57.131Z,26.40
2018-12-18T02:25:24.337Z,26.87
2018-12-18T02:27:51.539Z,27.93
2018-12-18T02:30:18.819Z,27.47
2018-12-18T02:32:46.046Z,27.83
2018-12-18T02:35:13.390Z,27.67
2018-12-18T02:37:40.621Z,27.50
2018-12-18T02:40:08.047Z,27.73
2018-12-18T02:42:35.270Z,28.93
2018-12-18T02:45:02.928Z,27.40
2018-12-18T02:47:30.133Z,28.47
2018-12-18T02:49:57.421Z,27.57
2018-12-18T02:52:24.766Z,27.57
2018-12-18T02:54:51.990Z,29.43
2018-12-18T02:57:19.192Z,28.87
2018-12-18T02:59:46.667Z,29.87
2018-12-18T03:02:14.215Z,29.47
2018-12-18T03:04:41.578Z,29.50
2018-12-18T03:07:08.940Z,30.57
2018-12-18T03:09:36.172Z,30.73
2018-12-18T03:12:03.640Z,29.43
2018-12-18T03:14:31.041Z,29.10
2018-12-18T03:16:58.374Z,29.73
2018-12-18T03:19:25.588Z,31.37
2018-12-18T03:21:52.941Z,32.80
2018-12-18T03:24:20.155Z,32.77
2018-12-18T03:26:47.396Z,32.43
2018-12-18T03:29:14.752Z,32.33
2018-12-18T03:31:45.210Z,30.70
2018-12-18T03:34:12.402Z,31.97
2018-12-18T03:36:39.653Z,31.23
2018-12-18T03:39:06.840Z,31.63
2018-12-18T03:41:34.181Z,31.60
2018-12-18T03:44:01.423Z,30.70
2018-12-18T03:46:28.633Z,29.93
2018-12-18T03:48:55.856Z,29.33
2018-12-18T03:51:23.116Z,28.00
2018-12-18T03:53:50.351Z,27.80
2018-12-18T03:56:17.560Z,27.27
2018-12-18T03:58:44.826Z,29.43
2018-12-18T04:01:12.126Z,28.17
2018-12-18T04:03:39.341Z,28.23
2018-12-18T04:06:06.621Z,27.80
2018-12-18T04:08:33.841Z,26.97
2018-12-18T04:11:01.178Z,27.27
2018-12-18T04:13:28.532Z,27.67
2018-12-18T04:15:55.751Z,28.13
2018-12-18T04:18:22.975Z,27.37
2018-12-18T04:20:50.232Z,27.57
2018-12-18T04:23:17.545Z,25.30
2018-12-18T04:25:44.766Z,27.87
2018-12-18T04:28:12.002Z,29.33
2018-12-18T04:30:39.291Z,29.27
2018-12-18T04:33:06.505Z,27.97
2018-12-18T04:35:33.731Z,28.53
2018-12-18T04:38:00.958Z,29.03
2018-12-18T04:40:28.192Z,29.30
2018-12-18T04:42:55.450Z,28.83
2018-12-18T04:45:22.696Z,28.63
2018-12-18T04:47:49.900Z,27.17
2018-12-18T04:50:17.142Z,26.97
2018-12-18T04:52:44.478Z,27.70
2018-12-18T04:55:11.794Z,27.37
2018-12-18T04:57:39.184Z,28.07
2018-12-18T05:00:07.733Z,28.10
2018-12-18T05:02:34.928Z,26.47
2018-12-18T05:05:02.280Z,26.90
2018-12-18T05:07:29.523Z,26.13
2018-12-18T05:09:56.722Z,25.97
2018-12-18T05:12:23.949Z,26.57
2018-12-18T05:14:51.278Z,26.90
2018-12-18T05:17:18.505Z,26.60
2018-12-18T05:19:45.788Z,26.50
2018-12-18T05:22:13.118Z,24.57
2018-12-18T05:24:40.332Z,25.67
2018-12-18T05:27:07.573Z,24.97
2018-12-18T05:29:34.761Z,26.20
2018-12-18T05:32:01.953Z,25.43
2018-12-18T05:34:29.181Z,26.40
2018-12-18T05:36:56.397Z,25.47
2018-12-18T05:39:23.604Z,24.20
2018-12-18T05:41:50.854Z,25.40
2018-12-18T05:44:18.076Z,24.57
2018-12-18T05:46:45.289Z,24.73
2018-12-18T05:49:12.645Z,25.57
2018-12-18T05:51:39.849Z,25.07
2018-12-18T05:54:07.066Z,25.73
2018-12-18T05:56:34.309Z,25.10
2018-12-18T05:59:01.674Z,24.03
2018-12-18T06:01:28.890Z,23.03
2018-12-18T06:03:56.165Z,24.07
2018-12-18T06:06:23.381Z,24.43
2018-12-18T06:08:50.581Z,24.23
2018-12-18T06:11:17.821Z,24.27
2018-12-18T06:13:45.025Z,22.93
2018-12-18T06:16:12.245Z,24.30
2018-12-18T06:18:39.491Z,24.47
2018-12-18T06:21:06.724Z,24.73
2018-12-18T06:23:33.981Z,24.50
2018-12-18T06:26:01.216Z,24.83
2018-12-18T06:28:28.420Z,24.80
2018-12-18T06:30:55.635Z,25.43
2018-12-18T06:33:22.898Z,25.77
2018-12-18T06:35:50.147Z,25.27
2018-12-18T06:38:17.499Z,24.90
2018-12-18T06:40:44.828Z,24.63
2018-12-18T06:43:12.136Z,25.77
2018-12-18T06:45:39.329Z,25.47
2018-12-18T06:48:06.581Z,25.63
2018-12-18T06:50:33.825Z,26.10
2018-12-18T06:53:01.037Z,25.37
2018-12-18T06:55:28.322Z,24.57
2018-12-18T06:57:55.544Z,24.83
2018-12-18T07:00:22.739Z,26.53
2018-12-18T07:02:49.966Z,25.80
2018-12-18T07:05:17.244Z,25.57
2018-12-18T07:07:44.953Z,24.50
2018-12-18T07:10:12.309Z,27.10
2018-12-18T07:12:39.534Z,26.67
2018-12-18T07:15:06.784Z,28.63
2018-12-18T07:17:34.025Z,27.60
2018-12-18T07:20:01.281Z,28.13
2018-12-18T07:22:28.485Z,27.63
2018-12-18T07:24:55.764Z,26.90
2018-12-18T07:27:22.956Z,28.20
2018-12-18T07:29:50.325Z,27.30
2018-12-18T07:32:17.574Z,28.77
2018-12-18T07:34:44.824Z,29.17
2018-12-18T07:37:12.185Z,27.27
2018-12-18T07:39:39.455Z,26.60
2018-12-18T07:42:06.787Z,27.87
2018-12-18T07:44:34.202Z,28.27
2018-12-18T07:47:01.553Z,28.73
2018-12-18T07:49:28.749Z,29.83
2018-12-18T07:51:55.950Z,29.13
2018-12-18T07:54:23.213Z,28.53
2018-12-18T07:56:50.429Z,28.63
2018-12-18T07:59:17.643Z,30.73
2018-12-18T08:01:45.184Z,29.03
2018-12-18T08:04:12.380Z,28.30
2018-12-18T08:06:39.593Z,29.47
2018-12-18T08:09:07.329Z,29.40
2018-12-18T08:11:34.549Z,29.17
2018-12-18T08:14:01.848Z,29.83
2018-12-18T08:16:29.119Z,27.37
2018-12-18T08:18:56.325Z,26.63
2018-12-18T08:21:23.689Z,27.13
2018-12-18T08:23:50.973Z,27.13
2018-12-18T08:26:18.346Z,27.70
2018-12-18T08:28:45.524Z,27.87
2018-12-18T08:31:12.793Z,28.17
2018-12-18T08:33:40.097Z,28.00
2018-12-18T08:36:07.304Z,26.00
2018-12-18T08:38:34.736Z,23.33
2018-12-18T08:41:01.944Z,25.23
2018-12-18T08:43:29.145Z,25.00
2018-12-18T08:45:56.407Z,24.37
2018-12-18T08:48:23.657Z,24.50
2018-12-18T08:50:50.907Z,23.50
2018-12-18T08:53:18.133Z,22.67
2018-12-18T08:55:45.337Z,22.47
2018-12-18T08:58:12.557Z,22.53
2018-12-18T09:00:39.792Z,22.70
2018-12-18T09:03:07.005Z,21.60
2018-12-18T09:05:34.213Z,21.83
2018-12-18T09:08:01.477Z,22.73
2018-12-18T09:10:28.678Z,22.47
2018-12-18T09:12:55.885Z,21.07
2018-12-18T09:15:29.049Z,22.37
2018-12-18T09:17:56.288Z,21.87
2018-12-18T09:20:23.537Z,22.10
2018-12-18T09:22:50.977Z,21.63
2018-12-18T09:25:18.206Z,22.17
2018-12-18T09:27:45.426Z,23.27
2018-12-18T09:30:12.703Z,22.83
2018-12-18T09:32:39.909Z,21.80
2018-12-18T09:35:07.274Z,22.97
2018-12-18T09:37:34.638Z,21.53
2018-12-18T09:40:01.838Z,23.60
2018-12-18T09:42:34.890Z,21.47
2018-12-18T09:45:02.308Z,22.77
2018-12-18T09:47:29.528Z,23.20
2018-12-18T09:49:56.800Z,22.27
2018-12-18T09:52:24.112Z,23.33
2018-12-18T09:54:51.331Z,22.50
2018-12-18T09:57:24.429Z,24.00
2018-12-18T09:59:51.726Z,23.07
2018-12-18T10:02:18.934Z,23.20
2018-12-18T10:04:46.171Z,23.77
2018-12-18T10:07:13.404Z,21.27
2018-12-18T10:09:40.593Z,24.10
2018-12-18T10:12:07.841Z,22.70
2018-12-18T10:14:35.205Z,23.43
2018-12-18T10:17:02.474Z,23.17
2018-12-18T10:19:29.709Z,22.80
2018-12-18T10:21:56.882Z,23.13
2018-12-18T10:24:24.092Z,24.57
2018-12-18T10:26:51.377Z,23.30
2018-12-18T10:29:18.565Z,21.83
2018-12-18T10:31:45.760Z,23.67
2018-12-18T10:34:13.110Z,25.10
2018-12-18T10:36:40.310Z,22.80
2018-12-18T10:39:07.617Z,22.37
2018-12-18T10:41:34.985Z,24.03
2018-12-18T10:44:02.372Z,24.50
2018-12-18T10:46:29.589Z,23.60
2018-12-18T10:48:56.792Z,24.03
2018-12-18T10:51:24.085Z,22.83
2018-12-18T10:53:51.313Z,24.63
2018-12-18T10:56:18.561Z,23.47
2018-12-18T10:58:45.803Z,23.60
2018-12-18T11:01:13.364Z,22.13
2018-12-18T11:03:40.627Z,22.40
2018-12-18T11:06:10.007Z,23.83
2018-12-18T11:08:37.237Z,24.43
2018-12-18T11:11:04.675Z,22.77
2018-12-18T11:13:31.877Z,21.93
2018-12-18T11:15:59.190Z,22.67
2018-12-18T11:18:26.435Z,23.50
2018-12-18T11:20:53.630Z,22.13
2018-12-18T11:23:20.858Z,21.70
2018-12-18T11:25:48.101Z,22.27
2018-12-18T11:28:15.444Z,22.60
2018-12-18T11:30:42.633Z,22.70
2018-12-18T11:33:09.892Z,24.57
2018-12-18T11:35:37.149Z,23.67
2018-12-18T11:38:04.343Z,21.53
2018-12-18T11:40:31.549Z,20.97
2018-12-18T11:42:58.757Z,20.57
2018-12-18T11:45:26.048Z,22.27
2018-12-18T11:47:53.327Z,22.27
2018-12-18T11:50:20.551Z,21.17
2018-12-18T11:52:47.749Z,19.47
2018-12-18T11:55:15.017Z,21.63
2018-12-18T11:57:42.340Z,21.77
2018-12-18T12:00:12.112Z,23.43
2018-12-18T12:02:42.792Z,21.80
2018-12-18T12:05:08.737Z,19.97
2018-12-18T12:07:35.951Z,20.77
2018-12-18T12:10:04.173Z,19.80
2018-12-18T12:12:31.500Z,18.83
2018-12-18T12:14:58.844Z,19.47
2018-12-18T12:17:26.504Z,20.33
2018-12-18T12:19:53.708Z,17.73
2018-12-18T12:22:20.943Z,18.33
2018-12-18T12:24:48.149Z,18.47
2018-12-18T12:27:21.284Z,17.67
2018-12-18T12:29:48.530Z,18.37
2018-12-18T12:32:15.781Z,18.40
2018-12-18T12:34:43.030Z,17.43
2018-12-18T12:37:10.276Z,17.90
2018-12-18T12:39:37.488Z,17.83
2018-12-18T12:42:04.726Z,18.03
2018-12-18T12:44:32.092Z,16.63
2018-12-18T12:46:59.310Z,16.57
2018-12-18T12:49:32.373Z,16.60
2018-12-18T12:51:59.582Z,16.43
2018-12-18T12:54:26.798Z,16.40
2018-12-18T12:56:54.356Z,16.00
2018-12-18T12:59:21.596Z,16.50
2018-12-18T13:01:48.822Z,15.43
2018-12-18T13:04:16.118Z,15.80
2018-12-18T13:06:43.353Z,15.37
2018-12-18T13:09:10.789Z,15.40
2018-12-18T13:11:38.056Z,13.90
2018-12-18T13:14:05.363Z,14.50
2018-12-18T13:16:32.592Z,14.27
2018-12-18T13:18:59.826Z,12.77
2018-12-18T13:21:27.030Z,13.30
2018-12-18T13:23:54.479Z,12.83
2018-12-18T13:26:21.869Z,12.03
2018-12-18T13:28:49.108Z,12.90
2018-12-18T13:31:16.334Z,12.63
2018-12-18T13:33:43.585Z,12.83
2018-12-18T13:36:10.935Z,12.43
2018-12-18T13:38:38.308Z,13.30
2018-12-18T13:41:05.544Z,11.80
2018-12-18T13:43:32.770Z,13.40
2018-12-18T13:45:59.986Z,13.20
2018-12-18T13:48:27.236Z,12.37
2018-12-18T13:50:54.481Z,12.67
2018-12-18T13:53:21.793Z,13.90
2018-12-18T13:55:49.029Z,13.33
2018-12-18T13:58:16.360Z,14.63
2018-12-18T14:00:43.687Z,13.93
2018-12-18T14:03:10.913Z,14.47
2018-12-18T14:05:38.099Z,13.07
2018-12-18T14:08:05.283Z,12.83
2018-12-18T14:10:32.689Z,13.57
2018-12-18T14:12:59.893Z,12.60
2018-12-18T14:15:27.221Z,12.07
2018-12-18T14:17:54.703Z,12.20
2018-12-18T14:20:22.032Z,13.60
2018-12-18T14:22:49.250Z,15.10
2018-12-18T14:25:16.521Z,15.80
2018-12-18T14:27:43.724Z,15.50
2018-12-18T14:30:11.164Z,15.90
2018-12-18T14:32:38.563Z,16.40
2018-12-18T14:35:05.884Z,17.23
2018-12-18T14:37:33.087Z,17.83
2018-12-18T14:40:00.328Z,16.57
2018-12-18T14:42:27.521Z,19.17
2018-12-18T14:44:54.716Z,19.33
2018-12-18T14:47:22.128Z,20.13
2018-12-18T14:49:49.480Z,20.00
2018-12-18T14:52:16.694Z,19.03
2018-12-18T14:54:44.025Z,20.23
2018-12-18T14:57:11.201Z,18.93
2018-12-18T14:59:38.625Z,20.43
2018-12-18T15:02:06.067Z,20.60
2018-12-18T15:04:33.263Z,19.53
2018-12-18T15:07:03.073Z,18.63
2018-12-18T15:09:29.715Z,20.03
2018-12-18T15:11:57.049Z,19.43
2018-12-18T15:14:24.257Z,20.00
2018-12-18T15:16:51.488Z,20.10
2018-12-18T15:19:18.705Z,20.20
2018-12-18T15:21:45.924Z,18.87
2018-12-18T15:24:13.169Z,20.93
2018-12-18T15:26:40.495Z,18.90
2018-12-18T15:29:07.717Z,20.33
2018-12-18T15:31:35.000Z,19.90
2018-12-18T15:34:02.271Z,21.40
2018-12-18T15:36:29.493Z,19.47
2018-12-18T15:38:56.972Z,19.77
2018-12-18T15:41:24.156Z,21.27
2018-12-18T15:43:51.373Z,20.30
2018-12-18T15:46:18.594Z,21.37
2018-12-18T15:48:45.798Z,22.23
2018-12-18T15:51:12.998Z,23.73
2018-12-18T15:53:40.248Z,23.73
2018-12-18T15:56:07.437Z,23.43
2018-12-18T15:58:34.651Z,22.83
2018-12-18T16:01:02.005Z,23.50
2018-12-18T16:03:29.226Z,21.90
2018-12-18T16:05:56.405Z,23.47
2018-12-18T16:08:23.679Z,23.20
2018-12-18T16:10:50.924Z,23.57
2018-12-18T16:13:18.137Z,22.67
2018-12-18T16:15:45.345Z,22.37
2018-12-18T16:18:12.553Z,21.37
2018-12-18T16:20:39.761Z,23.10
2018-12-18T16:23:07.070Z,20.27
2018-12-18T16:25:34.393Z,19.57
2018-12-18T16:28:01.637Z,18.80
2018-12-18T16:30:28.889Z,19.20
2018-12-18T16:32:56.106Z,20.07
2018-12-18T16:35:23.309Z,19.50
2018-12-18T16:37:50.564Z,19.53
2018-12-18T16:40:17.803Z,17.77
2018-12-18T16:42:45.018Z,17.83
2018-12-18T16:45:12.379Z,18.53
2018-12-18T16:47:39.568Z,18.43
2018-12-18T16:50:06.869Z,17.20
2018-12-18T16:52:34.104Z,16.50
2018-12-18T16:55:01.461Z,16.77
2018-12-18T16:57:28.791Z,15.43
2018-12-18T16:59:56.036Z,16.77
2018-12-18T17:02:23.529Z,16.90
2018-12-18T17:04:50.872Z,17.40
2018-12-18T17:07:18.128Z,19.33
2018-12-18T17:09:45.329Z,18.23
2018-12-18T17:12:12.548Z,17.30
2018-12-18T17:14:39.789Z,17.60
2018-12-18T17:17:07.033Z,17.53
2018-12-18T17:19:34.241Z,17.47
2018-12-18T17:22:01.467Z,16.83
2018-12-18T17:24:28.719Z,16.97
2018-12-18T17:26:55.926Z,17.13
2018-12-18T17:29:23.374Z,17.53
2018-12-18T17:31:50.577Z,17.07
2018-12-18T17:34:17.874Z,16.57
2018-12-18T17:36:45.125Z,18.00
2018-12-18T17:39:12.344Z,16.13
2018-12-18T17:41:39.565Z,15.60
2018-12-18T17:44:06.801Z,15.50
2018-12-18T17:46:34.018Z,14.27
2018-12-18T17:49:01.212Z,13.83
2018-12-18T17:51:28.444Z,14.70
2018-12-18T17:53:55.675Z,12.07
2018-12-18T17:56:23.027Z,12.73
2018-12-18T17:58:50.293Z,13.07
2018-12-18T18:01:17.745Z,13.27
2018-12-18T18:03:44.969Z,12.10
2018-12-18T18:06:12.246Z,11.67
2018-12-18T18:08:39.474Z,12.37
2018-12-18T18:11:06.713Z,12.83
2018-12-18T18:13:33.977Z,12.20
2018-12-18T18:16:01.296Z,13.87
2018-12-18T18:18:28.478Z,13.17
2018-12-18T18:20:55.735Z,13.73
2018-12-18T18:23:22.968Z,13.03
2018-12-18T18:25:51.049Z,13.93
2018-12-18T18:28:18.297Z,13.57
2018-12-18T18:30:45.649Z,14.00
2018-12-18T18:33:12.918Z,14.67
2018-12-18T18:35:40.234Z,13.37
2018-12-18T18:38:07.545Z,14.23
2018-12-18T18:40:34.758Z,14.73
2018-12-18T18:43:01.969Z,15.07
2018-12-18T18:45:29.181Z,14.93
2018-12-18T18:47:56.392Z,15.70
2018-12-18T18:50:23.628Z,15.50
2018-12-18T18:52:50.853Z,16.37
2018-12-18T18:55:19.107Z,17.00
2018-12-18T18:57:46.345Z,16.37
2018-12-18T19:00:13.896Z,16.77
2018-12-18T19:02:41.122Z,16.80
2018-12-18T19:05:08.376Z,16.73
2018-12-18T19:07:35.597Z,16.50
2018-12-18T19:10:04.069Z,16.77
2018-12-18T19:12:31.328Z,17.43
2018-12-18T19:14:58.549Z,17.47
2018-12-18T19:17:25.749Z,18.90
2018-12-18T19:19:53.224Z,19.23
2018-12-18T19:22:20.509Z,20.20
2018-12-18T19:24:47.741Z,19.93
2018-12-18T19:27:15.088Z,19.97
2018-12-18T19:29:42.306Z,20.77
2018-12-18T19:32:09.508Z,20.73
2018-12-18T19:34:36.725Z,21.17
2018-12-18T19:37:04.017Z,20.63
2018-12-18T19:39:31.407Z,21.60
2018-12-18T19:41:58.741Z,23.67
2018-12-18T19:44:25.962Z,23.23
2018-12-18T19:46:53.301Z,23.60
2018-12-18T19:49:20.638Z,23.80
2018-12-18T19:51:47.861Z,25.53
2018-12-18T19:54:15.172Z,23.60
2018-12-18T19:56:42.498Z,24.57
2018-12-18T19:59:10.914Z,26.97
2018-12-18T20:01:38.335Z,26.27
2018-12-18T20:04:05.589Z,27.47
2018-12-18T20:06:32.788Z,26.33
2018-12-18T20:09:00.080Z,27.30
2018-12-18T20:11:27.325Z,27.67
2018-12-18T20:13:54.587Z,27.70
2018-12-18T20:16:21.810Z,27.43
2018-12-18T20:18:49.835Z,30.33
2018-12-18T20:21:17.034Z,28.03
2018-12-18T20:23:44.267Z,31.00
2018-12-18T20:26:11.651Z,32.33
2018-12-18T20:28:38.842Z,30.97
2018-12-18T20:31:06.191Z,27.63
2018-12-18T20:33:33.441Z,27.70
2018-12-18T20:36:00.694Z,28.83
2018-12-18T20:38:27.921Z,29.03
2018-12-18T20:40:55.174Z,27.53
2018-12-18T20:43:22.404Z,27.47
2018-12-18T20:45:50.123Z,27.83
2018-12-18T20:48:17.371Z,26.67
2018-12-18T20:50:44.620Z,28.30
2018-12-18T20:53:11.945Z,28.83
2018-12-18T20:55:39.208Z,30.03
2018-12-18T20:58:06.393Z,30.60
2018-12-18T21:00:33.695Z,31.07
2018-12-18T21:03:00.964Z,32.53
2018-12-18T21:05:28.158Z,32.47
2018-12-18T21:07:55.718Z,32.60
2018-12-18T21:10:23.068Z,35.53
2018-12-18T21:12:50.292Z,35.57
2018-12-18T21:15:17.528Z,37.20
2018-12-18T21:17:44.777Z,38.17
2018-12-18T21:20:12.003Z,39.10
2018-12-18T21:22:39.205Z,39.50
2018-12-18T21:25:07.061Z,40.50
2018-12-18T21:27:34.261Z,40.77
2018-12-18T21:30:01.500Z,40.63
2018-12-18T21:32:28.751Z,42.37
2018-12-18T21:34:55.938Z,43.23
2018-12-18T21:37:23.156Z,44.33
2018-12-18T21:39:50.419Z,45.00
2018-12-18T21:42:17.773Z,45.13
2018-12-18T21:44:45.113Z,47.80
2018-12-18T21:47:12.348Z,49.10
2018-12-18T21:49:39.680Z,50.13
2018-12-18T21:52:06.972Z,48.93
2018-12-18T21:54:34.209Z,48.03
2018-12-18T21:57:01.457Z,53.00
2018-12-18T21:59:28.660Z,50.43
2018-12-18T22:01:55.936Z,52.13
2018-12-18T22:04:23.250Z,53.83
2018-12-18T22:06:50.477Z,55.87
2018-12-18T22:09:17.758Z,55.37
2018-12-18T22:11:44.952Z,56.90
2018-12-18T22:14:12.162Z,53.50
2018-12-18T22:16:39.427Z,53.50
2018-12-18T22:19:06.625Z,55.57
2018-12-18T22:21:33.840Z,58.00
2018-12-18T22:24:01.095Z,58.70
2018-12-18T22:26:28.317Z,62.20
2018-12-18T22:28:55.503Z,60.70
2018-12-18T22:31:22.786Z,63.80
2018-12-18T22:33:50.022Z,61.40
2018-12-18T22:36:17.241Z,61.83
2018-12-18T22:38:44.479Z,62.27
2018-12-18T22:41:11.677Z,56.70
2018-12-18T22:43:38.865Z,58.73
2018-12-18T22:46:06.111Z,60.90
2018-12-18T22:48:33.282Z,60.67
2018-12-18T22:51:01.964Z,64.47
2018-12-18T22:53:29.353Z,73.57
2018-12-18T22:55:56.564Z,65.83
2018-12-18T22:58:23.877Z,66.83
2018-12-18T23:00:55.974Z,67.43
2018-12-18T23:03:23.660Z,73.10
2018-12-18T23:05:50.949Z,70.57
2018-12-18T23:08:18.262Z,68.57
2018-12-18T23:10:45.516Z,68.23
2018-12-18T23:13:18.409Z,64.87
2018-12-18T23:15:47.393Z,59.97
2018-12-18T23:18:14.647Z,64.13
2018-12-18T23:20:41.985Z,56.87
2018-12-18T23:23:09.205Z,66.50
2018-12-18T23:25:36.515Z,65.80
2018-12-18T23:28:03.774Z,61.03
2018-12-18T23:30:31.031Z,60.00
2018-12-18T23:32:58.260Z,60.60
2018-12-18T23:35:25.550Z,57.67
2018-12-18T23:37:52.777Z,55.73
2018-12-18T23:40:19.993Z,57.13
2018-12-18T23:42:47.376Z,57.93
2018-12-18T23:45:14.581Z,60.10
2018-12-18T23:47:41.766Z,63.03
2018-12-18T23:50:08.997Z,60.93
2018-12-18T23:52:36.272Z,63.67
2018-12-18T23:55:04.011Z,64.07
2018-12-18T23:57:31.294Z,59.90
2018-12-18T23:59:58.526Z,56.43
